sensor_id;sensor_type;location;lat;lon;timestamp;P1;durP1;ratioP1;P2;durP2;ratioP2
73954;SDS011;62306;52.516;13.290;2023-09-08T00:02:03;18.88;;;9.73;;
73954;SDS011;62306;52.516;13.290;2023-09-08T00:04:30;12.48;;;8.15;;
73954;SDS011;62306;52.516;13.290;2023-09-08T00:06:58;14.68;;;8.98;;
73954;SDS011;62306;52.516;13.290;2023-09-08T00:09:24;11.70;;;8.20;;
73954;SDS011;62306;52.516;13.290;2023-09-08T00:11:53;12.40;;;8.73;;
73954;SDS011;62306;52.516;13.290;2023-09-08T00:14:20;17.80;;;9.32;;
73954;SDS011;62306;52.516;13.290;2023-09-08T00:16:47;10.50;;;8.40;;
73954;SDS011;62306;52.516;13.290;2023-09-08T00:19:14;12.13;;;8.98;;
73954;SDS011;62306;52.516;13.290;2023-09-08T00:21:40;12.55;;;9.25;;
73954;SDS011;62306;52.516;13.290;2023-09-08T00:24:08;14.25;;;8.82;;
73954;SDS011;62306;52.516;13.290;2023-09-08T00:26:35;13.23;;;9.30;;
73954;SDS011;62306;52.516;13.290;2023-09-08T00:29:03;14.82;;;11.02;;
73954;SDS011;62306;52.516;13.290;2023-09-08T00:31:30;11.85;;;8.85;;
73954;SDS011;62306;52.516;13.290;2023-09-08T00:33:58;12.85;;;9.68;;
73954;SDS011;62306;52.516;13.290;2023-09-08T00:36:24;13.68;;;9.45;;
73954;SDS011;62306;52.516;13.290;2023-09-08T00:38:52;14.55;;;9.35;;
73954;SDS011;62306;52.516;13.290;2023-09-08T00:41:19;14.13;;;9.32;;
73954;SDS011;62306;52.516;13.290;2023-09-08T00:43:45;12.70;;;8.43;;
73954;SDS011;62306;52.516;13.290;2023-09-08T00:46:13;12.73;;;8.52;;
73954;SDS011;62306;52.516;13.290;2023-09-08T00:48:41;12.60;;;9.27;;
73954;SDS011;62306;52.516;13.290;2023-09-08T00:51:08;12.35;;;8.00;;
73954;SDS011;62306;52.516;13.290;2023-09-08T00:53:36;13.68;;;9.60;;
73954;SDS011;62306;52.516;13.290;2023-09-08T00:56:03;13.95;;;8.80;;
73954;SDS011;62306;52.516;13.290;2023-09-08T00:58:30;19.73;;;16.17;;
73954;SDS011;62306;52.516;13.290;2023-09-08T01:00:58;26.08;;;18.63;;
73954;SDS011;62306;52.516;13.290;2023-09-08T01:03:26;39.45;;;28.35;;
73954;SDS011;62306;52.516;13.290;2023-09-08T01:05:53;14.85;;;9.63;;
73954;SDS011;62306;52.516;13.290;2023-09-08T01:08:21;13.95;;;9.50;;
73954;SDS011;62306;52.516;13.290;2023-09-08T01:10:48;12.52;;;9.23;;
73954;SDS011;62306;52.516;13.290;2023-09-08T01:13:15;10.70;;;8.80;;
73954;SDS011;62306;52.516;13.290;2023-09-08T01:15:42;14.60;;;9.70;;
73954;SDS011;62306;52.516;13.290;2023-09-08T01:18:09;19.83;;;9.55;;
73954;SDS011;62306;52.516;13.290;2023-09-08T01:20:41;12.38;;;9.00;;
73954;SDS011;62306;52.516;13.290;2023-09-08T01:23:35;12.63;;;9.68;;
73954;SDS011;62306;52.516;13.290;2023-09-08T01:26:16;15.55;;;9.18;;
73954;SDS011;62306;52.516;13.290;2023-09-08T01:28:46;10.93;;;8.85;;
73954;SDS011;62306;52.516;13.290;2023-09-08T01:31:15;17.75;;;9.02;;
73954;SDS011;62306;52.516;13.290;2023-09-08T01:33:43;13.32;;;9.13;;
73954;SDS011;62306;52.516;13.290;2023-09-08T01:36:11;15.85;;;9.20;;
73954;SDS011;62306;52.516;13.290;2023-09-08T01:38:39;14.98;;;9.18;;
73954;SDS011;62306;52.516;13.290;2023-09-08T01:41:06;15.98;;;9.55;;
73954;SDS011;62306;52.516;13.290;2023-09-08T01:43:34;15.05;;;9.50;;
73954;SDS011;62306;52.516;13.290;2023-09-08T01:46:01;13.15;;;9.68;;
73954;SDS011;62306;52.516;13.290;2023-09-08T01:48:27;12.30;;;9.80;;
73954;SDS011;62306;52.516;13.290;2023-09-08T01:50:54;13.82;;;9.27;;
73954;SDS011;62306;52.516;13.290;2023-09-08T01:53:21;20.50;;;10.30;;
73954;SDS011;62306;52.516;13.290;2023-09-08T01:55:48;12.63;;;9.65;;
73954;SDS011;62306;52.516;13.290;2023-09-08T01:58:15;14.07;;;9.43;;
73954;SDS011;62306;52.516;13.290;2023-09-08T02:00:43;12.35;;;10.00;;
73954;SDS011;62306;52.516;13.290;2023-09-08T02:03:14;12.95;;;9.60;;
73954;SDS011;62306;52.516;13.290;2023-09-08T02:05:41;17.27;;;10.43;;
73954;SDS011;62306;52.516;13.290;2023-09-08T02:08:08;14.93;;;9.27;;
73954;SDS011;62306;52.516;13.290;2023-09-08T02:10:35;18.73;;;10.10;;
73954;SDS011;62306;52.516;13.290;2023-09-08T02:13:02;14.68;;;9.75;;
73954;SDS011;62306;52.516;13.290;2023-09-08T02:15:29;17.27;;;10.30;;
73954;SDS011;62306;52.516;13.290;2023-09-08T02:17:57;15.15;;;10.30;;
73954;SDS011;62306;52.516;13.290;2023-09-08T02:20:24;18.42;;;10.40;;
73954;SDS011;62306;52.516;13.290;2023-09-08T02:22:52;15.80;;;9.80;;
73954;SDS011;62306;52.516;13.290;2023-09-08T02:25:22;16.48;;;10.35;;
73954;SDS011;62306;52.516;13.290;2023-09-08T02:27:49;14.23;;;9.93;;
73954;SDS011;62306;52.516;13.290;2023-09-08T02:30:16;16.40;;;10.35;;
73954;SDS011;62306;52.516;13.290;2023-09-08T02:32:43;18.10;;;10.35;;
73954;SDS011;62306;52.516;13.290;2023-09-08T02:35:12;16.48;;;10.38;;
73954;SDS011;62306;52.516;13.290;2023-09-08T02:37:39;20.80;;;10.73;;
73954;SDS011;62306;52.516;13.290;2023-09-08T02:40:06;17.83;;;10.07;;
73954;SDS011;62306;52.516;13.290;2023-09-08T02:42:33;16.67;;;10.98;;
73954;SDS011;62306;52.516;13.290;2023-09-08T02:45:00;17.20;;;11.18;;
73954;SDS011;62306;52.516;13.290;2023-09-08T02:47:27;14.63;;;10.52;;
73954;SDS011;62306;52.516;13.290;2023-09-08T02:49:54;13.18;;;10.35;;
73954;SDS011;62306;52.516;13.290;2023-09-08T02:52:23;16.52;;;11.30;;
73954;SDS011;62306;52.516;13.290;2023-09-08T02:54:50;14.55;;;10.63;;
73954;SDS011;62306;52.516;13.290;2023-09-08T02:57:17;16.60;;;10.13;;
73954;SDS011;62306;52.516;13.290;2023-09-08T02:59:48;17.15;;;10.45;;
73954;SDS011;62306;52.516;13.290;2023-09-08T03:02:15;15.20;;;10.05;;
73954;SDS011;62306;52.516;13.290;2023-09-08T03:04:42;17.02;;;11.18;;
73954;SDS011;62306;52.516;13.290;2023-09-08T03:07:09;14.77;;;10.90;;
73954;SDS011;62306;52.516;13.290;2023-09-08T03:09:37;14.50;;;11.00;;
73954;SDS011;62306;52.516;13.290;2023-09-08T03:12:04;15.32;;;10.77;;
73954;SDS011;62306;52.516;13.290;2023-09-08T03:14:31;15.30;;;10.27;;
73954;SDS011;62306;52.516;13.290;2023-09-08T03:16:58;14.30;;;11.70;;
73954;SDS011;62306;52.516;13.290;2023-09-08T03:19:25;14.23;;;11.27;;
73954;SDS011;62306;52.516;13.290;2023-09-08T03:21:52;15.32;;;10.88;;
73954;SDS011;62306;52.516;13.290;2023-09-08T03:24:19;14.70;;;11.05;;
73954;SDS011;62306;52.516;13.290;2023-09-08T03:26:47;17.30;;;11.52;;
73954;SDS011;62306;52.516;13.290;2023-09-08T03:29:14;13.00;;;10.93;;
73954;SDS011;62306;52.516;13.290;2023-09-08T03:31:41;16.58;;;10.80;;
73954;SDS011;62306;52.516;13.290;2023-09-08T03:34:08;15.60;;;10.98;;
73954;SDS011;62306;52.516;13.290;2023-09-08T03:36:35;17.27;;;11.30;;
73954;SDS011;62306;52.516;13.290;2023-09-08T03:39:02;19.35;;;11.45;;
73954;SDS011;62306;52.516;13.290;2023-09-08T03:41:29;15.50;;;11.60;;
73954;SDS011;62306;52.516;13.290;2023-09-08T03:43:57;14.75;;;10.93;;
73954;SDS011;62306;52.516;13.290;2023-09-08T03:46:24;17.25;;;12.00;;
73954;SDS011;62306;52.516;13.290;2023-09-08T03:48:50;14.15;;;11.30;;
73954;SDS011;62306;52.516;13.290;2023-09-08T03:51:19;14.13;;;11.70;;
73954;SDS011;62306;52.516;13.290;2023-09-08T03:53:46;14.27;;;11.80;;
73954;SDS011;62306;52.516;13.290;2023-09-08T03:56:13;20.85;;;15.85;;
73954;SDS011;62306;52.516;13.290;2023-09-08T03:58:40;16.67;;;11.70;;
73954;SDS011;62306;52.516;13.290;2023-09-08T04:01:08;14.45;;;10.77;;
73954;SDS011;62306;52.516;13.290;2023-09-08T04:03:35;17.63;;;12.00;;
73954;SDS011;62306;52.516;13.290;2023-09-08T04:06:02;14.88;;;11.32;;
73954;SDS011;62306;52.516;13.290;2023-09-08T04:08:29;18.80;;;12.27;;
73954;SDS011;62306;52.516;13.290;2023-09-08T04:10:56;18.23;;;12.30;;
73954;SDS011;62306;52.516;13.290;2023-09-08T04:13:22;16.38;;;11.48;;
73954;SDS011;62306;52.516;13.290;2023-09-08T04:15:49;18.63;;;11.88;;
73954;SDS011;62306;52.516;13.290;2023-09-08T04:18:17;19.80;;;12.15;;
73954;SDS011;62306;52.516;13.290;2023-09-08T04:20:44;22.10;;;12.75;;
73954;SDS011;62306;52.516;13.290;2023-09-08T04:23:11;16.27;;;12.23;;
73954;SDS011;62306;52.516;13.290;2023-09-08T04:25:38;15.60;;;12.05;;
73954;SDS011;62306;52.516;13.290;2023-09-08T04:28:05;16.90;;;12.07;;
73954;SDS011;62306;52.516;13.290;2023-09-08T04:30:32;21.58;;;12.25;;
73954;SDS011;62306;52.516;13.290;2023-09-08T04:32:59;19.40;;;11.93;;
73954;SDS011;62306;52.516;13.290;2023-09-08T04:35:27;18.17;;;12.07;;
73954;SDS011;62306;52.516;13.290;2023-09-08T04:37:54;17.15;;;13.55;;
73954;SDS011;62306;52.516;13.290;2023-09-08T04:40:21;21.98;;;12.88;;
73954;SDS011;62306;52.516;13.290;2023-09-08T04:42:48;15.30;;;11.60;;
73954;SDS011;62306;52.516;13.290;2023-09-08T04:45:14;15.70;;;12.45;;
73954;SDS011;62306;52.516;13.290;2023-09-08T04:47:41;19.60;;;12.07;;
73954;SDS011;62306;52.516;13.290;2023-09-08T04:50:09;18.73;;;12.32;;
73954;SDS011;62306;52.516;13.290;2023-09-08T04:52:37;19.02;;;13.05;;
73954;SDS011;62306;52.516;13.290;2023-09-08T04:55:04;21.25;;;13.07;;
73954;SDS011;62306;52.516;13.290;2023-09-08T04:57:32;17.08;;;12.05;;
73954;SDS011;62306;52.516;13.290;2023-09-08T04:59:59;18.92;;;11.70;;
73954;SDS011;62306;52.516;13.290;2023-09-08T05:02:25;19.52;;;12.75;;
73954;SDS011;62306;52.516;13.290;2023-09-08T05:04:52;20.08;;;12.80;;
73954;SDS011;62306;52.516;13.290;2023-09-08T05:07:19;18.88;;;12.30;;
73954;SDS011;62306;52.516;13.290;2023-09-08T05:09:47;21.60;;;11.77;;
73954;SDS011;62306;52.516;13.290;2023-09-08T05:12:14;20.17;;;13.02;;
73954;SDS011;62306;52.516;13.290;2023-09-08T05:14:41;18.35;;;12.52;;
73954;SDS011;62306;52.516;13.290;2023-09-08T05:17:08;18.63;;;12.13;;
73954;SDS011;62306;52.516;13.290;2023-09-08T05:19:35;18.42;;;12.07;;
73954;SDS011;62306;52.516;13.290;2023-09-08T05:22:02;18.88;;;12.23;;
73954;SDS011;62306;52.516;13.290;2023-09-08T05:24:31;20.10;;;13.50;;
73954;SDS011;62306;52.516;13.290;2023-09-08T05:26:59;20.52;;;13.20;;
73954;SDS011;62306;52.516;13.290;2023-09-08T05:29:26;19.20;;;13.48;;
73954;SDS011;62306;52.516;13.290;2023-09-08T05:31:52;18.77;;;12.23;;
73954;SDS011;62306;52.516;13.290;2023-09-08T05:34:19;20.40;;;13.35;;
73954;SDS011;62306;52.516;13.290;2023-09-08T05:36:46;17.35;;;11.80;;
73954;SDS011;62306;52.516;13.290;2023-09-08T05:39:14;22.25;;;13.32;;
73954;SDS011;62306;52.516;13.290;2023-09-08T05:41:43;19.00;;;12.18;;
73954;SDS011;62306;52.516;13.290;2023-09-08T05:44:12;20.77;;;12.82;;
73954;SDS011;62306;52.516;13.290;2023-09-08T05:46:38;18.70;;;13.00;;
73954;SDS011;62306;52.516;13.290;2023-09-08T05:49:05;19.60;;;13.43;;
73954;SDS011;62306;52.516;13.290;2023-09-08T05:51:32;22.77;;;12.38;;
73954;SDS011;62306;52.516;13.290;2023-09-08T05:53:59;20.73;;;12.68;;
73954;SDS011;62306;52.516;13.290;2023-09-08T05:56:29;16.58;;;11.48;;
73954;SDS011;62306;52.516;13.290;2023-09-08T05:58:56;18.65;;;12.23;;
73954;SDS011;62306;52.516;13.290;2023-09-08T06:01:25;17.58;;;12.52;;
73954;SDS011;62306;52.516;13.290;2023-09-08T06:03:52;19.08;;;12.40;;
73954;SDS011;62306;52.516;13.290;2023-09-08T06:06:20;15.95;;;11.98;;
73954;SDS011;62306;52.516;13.290;2023-09-08T06:08:47;20.33;;;12.40;;
73954;SDS011;62306;52.516;13.290;2023-09-08T06:11:13;24.25;;;12.43;;
73954;SDS011;62306;52.516;13.290;2023-09-08T06:13:40;21.10;;;11.88;;
73954;SDS011;62306;52.516;13.290;2023-09-08T06:16:07;20.02;;;12.50;;
73954;SDS011;62306;52.516;13.290;2023-09-08T06:18:36;17.48;;;11.50;;
73954;SDS011;62306;52.516;13.290;2023-09-08T06:21:05;19.45;;;11.90;;
73954;SDS011;62306;52.516;13.290;2023-09-08T06:23:32;17.33;;;11.95;;
73954;SDS011;62306;52.516;13.290;2023-09-08T06:25:59;14.63;;;11.35;;
73954;SDS011;62306;52.516;13.290;2023-09-08T06:28:26;13.30;;;11.07;;
73954;SDS011;62306;52.516;13.290;2023-09-08T06:30:53;16.63;;;11.88;;
73954;SDS011;62306;52.516;13.290;2023-09-08T06:33:21;23.92;;;13.70;;
73954;SDS011;62306;52.516;13.290;2023-09-08T06:35:49;16.92;;;10.93;;
73954;SDS011;62306;52.516;13.290;2023-09-08T06:38:18;19.77;;;11.98;;
73954;SDS011;62306;52.516;13.290;2023-09-08T06:40:45;20.00;;;11.23;;
73954;SDS011;62306;52.516;13.290;2023-09-08T06:43:13;18.42;;;12.68;;
73954;SDS011;62306;52.516;13.290;2023-09-08T06:45:39;20.33;;;10.82;;
73954;SDS011;62306;52.516;13.290;2023-09-08T06:48:06;15.00;;;11.27;;
73954;SDS011;62306;52.516;13.290;2023-09-08T06:50:33;16.08;;;11.23;;
73954;SDS011;62306;52.516;13.290;2023-09-08T06:53:02;17.92;;;11.65;;
73954;SDS011;62306;52.516;13.290;2023-09-08T06:55:29;21.27;;;12.20;;
73954;SDS011;62306;52.516;13.290;2023-09-08T06:57:56;18.67;;;11.13;;
73954;SDS011;62306;52.516;13.290;2023-09-08T07:00:23;16.73;;;10.70;;
73954;SDS011;62306;52.516;13.290;2023-09-08T07:02:50;15.68;;;10.45;;
73954;SDS011;62306;52.516;13.290;2023-09-08T07:05:17;32.05;;;24.88;;
73954;SDS011;62306;52.516;13.290;2023-09-08T07:07:44;29.55;;;20.60;;
73954;SDS011;62306;52.516;13.290;2023-09-08T07:10:13;18.35;;;11.00;;
73954;SDS011;62306;52.516;13.290;2023-09-08T07:12:40;15.40;;;10.30;;
73954;SDS011;62306;52.516;13.290;2023-09-08T07:15:07;18.27;;;10.30;;
73954;SDS011;62306;52.516;13.290;2023-09-08T07:17:35;15.27;;;9.85;;
73954;SDS011;62306;52.516;13.290;2023-09-08T07:20:02;18.35;;;10.00;;
73954;SDS011;62306;52.516;13.290;2023-09-08T07:22:30;17.35;;;10.15;;
73954;SDS011;62306;52.516;13.290;2023-09-08T07:24:57;21.88;;;10.13;;
73954;SDS011;62306;52.516;13.290;2023-09-08T07:27:26;20.35;;;10.93;;
73954;SDS011;62306;52.516;13.290;2023-09-08T07:29:53;16.83;;;9.15;;
73954;SDS011;62306;52.516;13.290;2023-09-08T07:32:20;18.00;;;8.48;;
73954;SDS011;62306;52.516;13.290;2023-09-08T07:34:47;15.73;;;9.52;;
73954;SDS011;62306;52.516;13.290;2023-09-08T07:37:20;20.20;;;9.38;;
73954;SDS011;62306;52.516;13.290;2023-09-08T07:39:47;15.60;;;8.68;;
73954;SDS011;62306;52.516;13.290;2023-09-08T07:42:13;15.05;;;8.57;;
73954;SDS011;62306;52.516;13.290;2023-09-08T07:44:42;13.18;;;8.40;;
73954;SDS011;62306;52.516;13.290;2023-09-08T07:47:08;11.85;;;8.07;;
73954;SDS011;62306;52.516;13.290;2023-09-08T07:49:35;18.33;;;9.00;;
73954;SDS011;62306;52.516;13.290;2023-09-08T07:52:03;16.58;;;9.40;;
73954;SDS011;62306;52.516;13.290;2023-09-08T07:54:32;16.98;;;8.45;;
73954;SDS011;62306;52.516;13.290;2023-09-08T07:56:59;16.70;;;7.82;;
73954;SDS011;62306;52.516;13.290;2023-09-08T07:59:26;14.88;;;8.32;;
73954;SDS011;62306;52.516;13.290;2023-09-08T08:01:54;16.80;;;9.10;;
73954;SDS011;62306;52.516;13.290;2023-09-08T08:04:21;13.65;;;8.05;;
73954;SDS011;62306;52.516;13.290;2023-09-08T08:06:48;12.77;;;7.63;;
73954;SDS011;62306;52.516;13.290;2023-09-08T08:09:15;16.98;;;9.10;;
73954;SDS011;62306;52.516;13.290;2023-09-08T08:11:42;15.73;;;8.65;;
73954;SDS011;62306;52.516;13.290;2023-09-08T08:14:09;16.45;;;7.57;;
73954;SDS011;62306;52.516;13.290;2023-09-08T08:16:35;13.75;;;8.25;;
73954;SDS011;62306;52.516;13.290;2023-09-08T08:19:04;17.83;;;8.25;;
73954;SDS011;62306;52.516;13.290;2023-09-08T08:21:31;13.90;;;8.93;;
73954;SDS011;62306;52.516;13.290;2023-09-08T08:23:58;11.18;;;8.27;;
73954;SDS011;62306;52.516;13.290;2023-09-08T08:26:25;18.08;;;8.02;;
73954;SDS011;62306;52.516;13.290;2023-09-08T08:28:54;12.65;;;7.72;;
73954;SDS011;62306;52.516;13.290;2023-09-08T08:31:21;12.75;;;7.43;;
73954;SDS011;62306;52.516;13.290;2023-09-08T08:33:49;14.20;;;7.80;;
73954;SDS011;62306;52.516;13.290;2023-09-08T08:36:17;12.52;;;7.47;;
73954;SDS011;62306;52.516;13.290;2023-09-08T08:38:44;12.77;;;7.03;;
73954;SDS011;62306;52.516;13.290;2023-09-08T08:41:11;20.17;;;8.05;;
73954;SDS011;62306;52.516;13.290;2023-09-08T08:43:38;12.25;;;7.60;;
73954;SDS011;62306;52.516;13.290;2023-09-08T08:46:05;10.57;;;7.75;;
73954;SDS011;62306;52.516;13.290;2023-09-08T08:48:32;14.93;;;9.05;;
73954;SDS011;62306;52.516;13.290;2023-09-08T08:51:00;16.00;;;7.38;;
73954;SDS011;62306;52.516;13.290;2023-09-08T08:53:30;12.25;;;7.47;;
73954;SDS011;62306;52.516;13.290;2023-09-08T08:55:57;10.65;;;7.22;;
73954;SDS011;62306;52.516;13.290;2023-09-08T08:58:26;13.60;;;7.18;;
73954;SDS011;62306;52.516;13.290;2023-09-08T09:00:54;15.25;;;7.30;;
73954;SDS011;62306;52.516;13.290;2023-09-08T09:03:24;13.13;;;7.70;;
73954;SDS011;62306;52.516;13.290;2023-09-08T09:05:52;9.95;;;7.55;;
73954;SDS011;62306;52.516;13.290;2023-09-08T09:08:19;10.32;;;6.63;;
73954;SDS011;62306;52.516;13.290;2023-09-08T09:10:50;18.08;;;6.78;;
73954;SDS011;62306;52.516;13.290;2023-09-08T09:13:17;10.43;;;7.47;;
73954;SDS011;62306;52.516;13.290;2023-09-08T09:15:44;13.32;;;7.22;;
73954;SDS011;62306;52.516;13.290;2023-09-08T09:18:11;13.25;;;7.65;;
73954;SDS011;62306;52.516;13.290;2023-09-08T09:20:38;12.18;;;7.28;;
73954;SDS011;62306;52.516;13.290;2023-09-08T09:23:06;9.07;;;6.60;;
73954;SDS011;62306;52.516;13.290;2023-09-08T09:25:33;9.30;;;6.75;;
73954;SDS011;62306;52.516;13.290;2023-09-08T09:28:02;12.25;;;7.88;;
73954;SDS011;62306;52.516;13.290;2023-09-08T09:30:47;19.90;;;12.60;;
73954;SDS011;62306;52.516;13.290;2023-09-08T09:33:14;13.70;;;6.97;;
73954;SDS011;62306;52.516;13.290;2023-09-08T09:35:42;21.60;;;8.02;;
73954;SDS011;62306;52.516;13.290;2023-09-08T09:38:10;12.60;;;8.18;;
73954;SDS011;62306;52.516;13.290;2023-09-08T09:40:38;15.35;;;8.15;;
73954;SDS011;62306;52.516;13.290;2023-09-08T09:43:07;11.38;;;7.70;;
73954;SDS011;62306;52.516;13.290;2023-09-08T09:45:34;14.20;;;7.75;;
73954;SDS011;62306;52.516;13.290;2023-09-08T09:48:02;16.17;;;7.47;;
73954;SDS011;62306;52.516;13.290;2023-09-08T09:50:29;10.20;;;7.50;;
73954;SDS011;62306;52.516;13.290;2023-09-08T09:53:01;15.82;;;7.43;;
73954;SDS011;62306;52.516;13.290;2023-09-08T09:55:46;13.73;;;7.45;;
73954;SDS011;62306;52.516;13.290;2023-09-08T09:58:18;12.68;;;7.93;;
73954;SDS011;62306;52.516;13.290;2023-09-08T10:00:53;12.98;;;8.13;;
73954;SDS011;62306;52.516;13.290;2023-09-08T10:03:24;18.08;;;7.22;;
73954;SDS011;62306;52.516;13.290;2023-09-08T10:06:02;9.57;;;7.68;;
73954;SDS011;62306;52.516;13.290;2023-09-08T10:08:43;14.10;;;7.82;;
73954;SDS011;62306;52.516;13.290;2023-09-08T10:12:19;20.90;;;7.28;;
73954;SDS011;62306;52.516;13.290;2023-09-08T10:14:41;19.45;;;7.85;;
73954;SDS011;62306;52.516;13.290;2023-09-08T10:17:51;15.60;;;7.20;;
73954;SDS011;62306;52.516;13.290;2023-09-08T10:23:35;12.32;;;8.50;;
73954;SDS011;62306;52.516;13.290;2023-09-08T10:26:09;13.52;;;7.10;;
73954;SDS011;62306;52.516;13.290;2023-09-08T10:28:37;11.63;;;6.72;;
73954;SDS011;62306;52.516;13.290;2023-09-08T10:31:13;10.07;;;6.40;;
73954;SDS011;62306;52.516;13.290;2023-09-08T10:33:56;10.45;;;7.68;;
73954;SDS011;62306;52.516;13.290;2023-09-08T10:36:26;8.70;;;6.78;;
73954;SDS011;62306;52.516;13.290;2023-09-08T10:42:23;15.88;;;6.47;;
73954;SDS011;62306;52.516;13.290;2023-09-08T10:45:13;9.60;;;7.10;;
73954;SDS011;62306;52.516;13.290;2023-09-08T10:48:00;9.48;;;6.60;;
73954;SDS011;62306;52.516;13.290;2023-09-08T10:53:05;15.48;;;6.05;;
73954;SDS011;62306;52.516;13.290;2023-09-08T10:55:40;10.55;;;6.47;;
73954;SDS011;62306;52.516;13.290;2023-09-08T10:58:18;14.32;;;6.93;;
73954;SDS011;62306;52.516;13.290;2023-09-08T11:01:14;14.32;;;6.65;;
73954;SDS011;62306;52.516;13.290;2023-09-08T11:03:49;8.70;;;6.63;;
73954;SDS011;62306;52.516;13.290;2023-09-08T11:06:23;12.90;;;6.68;;
73954;SDS011;62306;52.516;13.290;2023-09-08T11:09:33;8.18;;;6.90;;
73954;SDS011;62306;52.516;13.290;2023-09-08T11:11:48;12.32;;;6.22;;
73954;SDS011;62306;52.516;13.290;2023-09-08T11:14:16;10.35;;;6.10;;
73954;SDS011;62306;52.516;13.290;2023-09-08T11:17:01;9.40;;;6.32;;
73954;SDS011;62306;52.516;13.290;2023-09-08T11:19:45;11.98;;;5.88;;
73954;SDS011;62306;52.516;13.290;2023-09-08T11:22:24;10.93;;;6.47;;
73954;SDS011;62306;52.516;13.290;2023-09-08T11:24:57;9.20;;;6.00;;
73954;SDS011;62306;52.516;13.290;2023-09-08T11:27:36;11.65;;;5.97;;
73954;SDS011;62306;52.516;13.290;2023-09-08T11:30:12;10.40;;;6.28;;
73954;SDS011;62306;52.516;13.290;2023-09-08T11:32:39;10.55;;;7.22;;
73954;SDS011;62306;52.516;13.290;2023-09-08T11:35:08;10.43;;;6.50;;
73954;SDS011;62306;52.516;13.290;2023-09-08T11:37:36;8.13;;;5.85;;
73954;SDS011;62306;52.516;13.290;2023-09-08T11:40:04;10.15;;;6.30;;
73954;SDS011;62306;52.516;13.290;2023-09-08T11:42:34;8.80;;;6.40;;
73954;SDS011;62306;52.516;13.290;2023-09-08T11:45:01;9.65;;;6.25;;
73954;SDS011;62306;52.516;13.290;2023-09-08T11:47:29;12.65;;;5.97;;
73954;SDS011;62306;52.516;13.290;2023-09-08T11:49:57;9.70;;;5.20;;
73954;SDS011;62306;52.516;13.290;2023-09-08T11:52:25;10.68;;;6.28;;
73954;SDS011;62306;52.516;13.290;2023-09-08T11:54:52;9.43;;;6.20;;
73954;SDS011;62306;52.516;13.290;2023-09-08T11:57:19;11.50;;;6.03;;
73954;SDS011;62306;52.516;13.290;2023-09-08T11:59:46;8.68;;;5.60;;
73954;SDS011;62306;52.516;13.290;2023-09-08T12:02:14;9.50;;;5.70;;
73954;SDS011;62306;52.516;13.290;2023-09-08T12:04:41;11.95;;;5.10;;
73954;SDS011;62306;52.516;13.290;2023-09-08T12:07:11;7.95;;;5.50;;
73954;SDS011;62306;52.516;13.290;2023-09-08T12:09:41;10.48;;;5.85;;
73954;SDS011;62306;52.516;13.290;2023-09-08T12:12:10;14.07;;;6.00;;
73954;SDS011;62306;52.516;13.290;2023-09-08T12:14:40;6.82;;;5.57;;
73954;SDS011;62306;52.516;13.290;2023-09-08T12:17:07;7.93;;;5.72;;
73954;SDS011;62306;52.516;13.290;2023-09-08T12:19:34;8.35;;;5.78;;
73954;SDS011;62306;52.516;13.290;2023-09-08T12:22:02;9.50;;;5.50;;
73954;SDS011;62306;52.516;13.290;2023-09-08T12:24:49;11.63;;;5.82;;
73954;SDS011;62306;52.516;13.290;2023-09-08T12:27:23;7.05;;;5.28;;
73954;SDS011;62306;52.516;13.290;2023-09-08T12:29:56;12.73;;;6.28;;
73954;SDS011;62306;52.516;13.290;2023-09-08T12:32:25;7.07;;;5.53;;
73954;SDS011;62306;52.516;13.290;2023-09-08T12:34:55;8.27;;;6.15;;
73954;SDS011;62306;52.516;13.290;2023-09-08T12:37:22;9.90;;;6.45;;
73954;SDS011;62306;52.516;13.290;2023-09-08T12:39:51;8.82;;;5.82;;
73954;SDS011;62306;52.516;13.290;2023-09-08T12:42:18;8.55;;;5.65;;
73954;SDS011;62306;52.516;13.290;2023-09-08T12:44:45;9.65;;;5.57;;
73954;SDS011;62306;52.516;13.290;2023-09-08T12:47:13;7.78;;;5.53;;
73954;SDS011;62306;52.516;13.290;2023-09-08T12:49:40;9.93;;;5.90;;
73954;SDS011;62306;52.516;13.290;2023-09-08T12:52:06;10.30;;;5.95;;
73954;SDS011;62306;52.516;13.290;2023-09-08T12:54:34;9.35;;;5.82;;
73954;SDS011;62306;52.516;13.290;2023-09-08T12:57:02;6.13;;;5.40;;
73954;SDS011;62306;52.516;13.290;2023-09-08T12:59:30;7.70;;;5.60;;
73954;SDS011;62306;52.516;13.290;2023-09-08T13:01:57;10.00;;;5.15;;
73954;SDS011;62306;52.516;13.290;2023-09-08T13:04:24;8.90;;;5.68;;
73954;SDS011;62306;52.516;13.290;2023-09-08T13:06:50;12.02;;;5.90;;
73954;SDS011;62306;52.516;13.290;2023-09-08T13:09:17;9.02;;;6.00;;
73954;SDS011;62306;52.516;13.290;2023-09-08T13:11:45;7.75;;;5.50;;
73954;SDS011;62306;52.516;13.290;2023-09-08T13:14:13;10.35;;;6.85;;
73954;SDS011;62306;52.516;13.290;2023-09-08T13:16:40;9.63;;;5.80;;
73954;SDS011;62306;52.516;13.290;2023-09-08T13:19:07;9.48;;;5.85;;
73954;SDS011;62306;52.516;13.290;2023-09-08T13:21:34;10.80;;;5.72;;
73954;SDS011;62306;52.516;13.290;2023-09-08T13:24:03;7.57;;;5.78;;
73954;SDS011;62306;52.516;13.290;2023-09-08T13:26:32;7.10;;;5.38;;
73954;SDS011;62306;52.516;13.290;2023-09-08T13:28:59;9.25;;;5.57;;
73954;SDS011;62306;52.516;13.290;2023-09-08T13:31:27;9.77;;;6.70;;
73954;SDS011;62306;52.516;13.290;2023-09-08T13:33:54;10.25;;;5.60;;
73954;SDS011;62306;52.516;13.290;2023-09-08T13:36:21;6.68;;;5.50;;
73954;SDS011;62306;52.516;13.290;2023-09-08T13:38:48;7.38;;;5.47;;
73954;SDS011;62306;52.516;13.290;2023-09-08T13:41:14;6.03;;;5.13;;
73954;SDS011;62306;52.516;13.290;2023-09-08T13:43:41;9.65;;;5.38;;
73954;SDS011;62306;52.516;13.290;2023-09-08T13:46:08;12.48;;;6.03;;
73954;SDS011;62306;52.516;13.290;2023-09-08T13:48:36;14.38;;;5.65;;
73954;SDS011;62306;52.516;13.290;2023-09-08T13:51:03;11.20;;;5.60;;
73954;SDS011;62306;52.516;13.290;2023-09-08T13:53:30;10.23;;;5.95;;
73954;SDS011;62306;52.516;13.290;2023-09-08T13:55:57;9.68;;;5.43;;
73954;SDS011;62306;52.516;13.290;2023-09-08T13:58:24;8.52;;;5.00;;
73954;SDS011;62306;52.516;13.290;2023-09-08T14:00:50;8.60;;;6.18;;
73954;SDS011;62306;52.516;13.290;2023-09-08T14:03:17;12.32;;;6.40;;
73954;SDS011;62306;52.516;13.290;2023-09-08T14:05:45;7.82;;;5.75;;
73954;SDS011;62306;52.516;13.290;2023-09-08T14:08:12;7.20;;;5.50;;
73954;SDS011;62306;52.516;13.290;2023-09-08T14:10:39;7.70;;;5.53;;
73954;SDS011;62306;52.516;13.290;2023-09-08T14:13:06;8.20;;;6.45;;
73954;SDS011;62306;52.516;13.290;2023-09-08T14:15:33;7.70;;;5.53;;
73954;SDS011;62306;52.516;13.290;2023-09-08T14:18:00;8.20;;;5.47;;
73954;SDS011;62306;52.516;13.290;2023-09-08T14:20:27;9.15;;;5.65;;
73954;SDS011;62306;52.516;13.290;2023-09-08T14:22:55;7.35;;;5.38;;
73954;SDS011;62306;52.516;13.290;2023-09-08T14:25:22;12.70;;;6.32;;
73954;SDS011;62306;52.516;13.290;2023-09-08T14:27:49;8.77;;;6.85;;
73954;SDS011;62306;52.516;13.290;2023-09-08T14:30:16;8.38;;;5.53;;
73954;SDS011;62306;52.516;13.290;2023-09-08T14:32:43;10.55;;;5.43;;
73954;SDS011;62306;52.516;13.290;2023-09-08T14:35:10;10.82;;;5.40;;
73954;SDS011;62306;52.516;13.290;2023-09-08T14:37:37;7.15;;;4.90;;